Time;durP1;ratioP1;P1;durP2;ratioP2;P2;SDS_P1;SDS_P2;PMS_P1;PMS_P2;Temp;Humidity;BMP_temperature;BMP_pressure;BME280_temperature;BME280_humidity;BME280_pressure;Samples;Min_cycle;Max_cycle;Signal;HPM_P1;HPM_P2
2021/12/18 00:00:16;;;;;;;;;;;;;;;;;;112193;1266;9680;-75
2021/12/18 00:03:07;;;;;;;;;;;;;;;;;;112164;1266;9684;-76
2021/12/18 00:05:35;;;;;;;;;;;;;;;;;;112189;1265;8747;-76
2021/12/18 00:08:03;;;;;;;;;;;;;;;;;;112157;1263;9437;-76
2021/12/18 00:10:31;;;;;;;;;;;;;;;;;;112200;1267;8774;-76
2021/12/18 00:13:00;;;;;;;;;;;;;;;;;;112199;1265;7952;-75
2021/12/18 00:15:29;;;;;;;;;;;;;;;;;;112181;1265;9690;-76
2021/12/18 00:17:58;;;;;;;;;;;;;;;;;;112212;1264;8353;-76
2021/12/18 00:20:27;;;;;;;;;;;;;;;;;;112113;1264;8771;-75
2021/12/18 00:22:55;;;;;;;;;;;;;;;;;;112131;1266;9690;-74
2021/12/18 00:25:23;;;;;;;;;;;;;;;;;;112190;1267;8344;-75
2021/12/18 00:27:51;;;;;;;;;;;;;;;;;;112132;1267;8793;-75
2021/12/18 00:30:19;;;;;;;;;;;;;;;;;;112190;1263;9690;-75
2021/12/18 00:32:48;;;;;;;;;;;;;;;;;;112159;1261;8394;-75
2021/12/18 00:35:17;;;;;;;;;;;;;;;;;;112205;1263;8921;-75
2021/12/18 00:37:45;;;;;;;;;;;;;;;;;;112204;1265;8767;-75
2021/12/18 00:40:22;;;;;;;;;;;;;;;;;;112189;1264;8955;-75
2021/12/18 00:43:02;;;;;;;;;;;;;;;;;;112046;1267;9022;-75
2021/12/18 00:45:30;;;;;;;;;;;;;;;;;;112201;1266;9251;-76
2021/12/18 00:47:58;;;;;;;;;;;;;;;;;;112223;1263;7944;-75
2021/12/18 00:50:30;;;;;;;;;;;;;;;;;;112200;1262;9694;-75
2021/12/18 00:52:58;;;;;;;;;;;;;;;;;;112186;1266;8775;-77
2021/12/18 00:55:26;;;;;;;;;;;;;;;;;;112191;1263;7979;-75
2021/12/18 00:57:54;;;;;;;;;;;;;;;;;;112160;1266;9694;-77
2021/12/18 01:00:24;;;;;;;;;;;;;;;;;;112221;1265;9671;-78
2021/12/18 01:02:57;;;;;;;;;;;;;;;;;;112172;1265;9767;-75
2021/12/18 01:05:26;;;;;;;;;;;;;;;;;;112191;1266;8758;-75
2021/12/18 01:07:56;;;;;;;;;;;;;;;;;;112179;1263;8944;-75
2021/12/18 01:13:05;;;;;;;;;;;;;;;;;;112175;1266;8971;-76
2021/12/18 01:15:38;;;;;;;;;;;;;;;;;;112182;1266;8826;-75
2021/12/18 01:23:40;;;;;;;;;;;;;;;;;;112205;1265;8345;-75
2021/12/18 01:26:08;;;;;;;;;;;;;;;;;;112200;1265;9678;-75
2021/12/18 01:28:36;;;;;;;;;;;;;;;;;;112225;1265;7954;-76
2021/12/18 01:31:05;;;;;;;;;;;;;;;;;;112152;1265;8790;-76
2021/12/18 01:33:33;;;;;;;;;;;;;;;;;;112173;1265;9603;-76
2021/12/18 01:36:01;;;;;;;;;;;;;;;;;;112193;1264;9072;-74
2021/12/18 01:38:30;;;;;;;;;;;;;;;;;;112184;1263;9677;-75
2021/12/18 01:40:59;;;;;;;;;;;;;;;;;;112184;1266;7914;-74
2021/12/18 01:46:35;;;;;;;;;;;;;;;;;;112021;1265;8064;-76
2021/12/18 01:54:29;;;;;;;;;;;;;;;;;;112188;1266;9665;-75
2021/12/18 01:56:59;;;;;;;;;;;;;;;;;;112166;1265;7956;-75
2021/12/18 01:59:36;;;;;;;;;;;;;;;;;;112204;1263;8944;-75
2021/12/18 02:02:05;;;;;;;;;;;;;;;;;;112187;1265;9707;-75
2021/12/18 02:04:33;;;;;;;;;;;;;;;;;;112179;1265;8355;-75
2021/12/18 02:07:02;;;;;;;;;;;;;;;;;;112183;1263;9697;-74
2021/12/18 02:09:52;;;;;;;;;;;;;;;;;;112179;1266;7946;-74
2021/12/18 02:12:24;;;;;;;;;;;;;;;;;;112184;1265;7965;-76
2021/12/18 02:20:38;;;;;;;;;;;;;;;;;;112183;1264;8757;-76
2021/12/18 02:23:14;;;;;;;;;;;;;;;;;;112202;1267;8761;-75
2021/12/18 02:25:43;;;;;;;;;;;;;;;;;;112176;1266;8372;-76
2021/12/18 02:28:18;;;;;;;;;;;;;;;;;;112191;1264;8770;-74
2021/12/18 02:30:49;;;;;;;;;;;;;;;;;;112186;1265;9660;-75
2021/12/18 02:33:17;;;;;;;;;;;;;;;;;;112187;1266;8731;-75
2021/12/18 02:35:49;;;;;;;;;;;;;;;;;;112196;1266;8348;-76
2021/12/18 02:38:19;;;;;;;;;;;;;;;;;;112179;1266;9303;-74
2021/12/18 02:43:24;;;;;;;;;;;;;;;;;;112187;1267;8760;-75
2021/12/18 02:45:55;;;;;;;;;;;;;;;;;;112186;1266;7923;-75
2021/12/18 02:48:24;;;;;;;;;;;;;;;;;;112192;1266;9203;-75
2021/12/18 02:50:52;;;;;;;;;;;;;;;;;;112152;1264;7948;-75
2021/12/18 02:53:20;;;;;;;;;;;;;;;;;;112135;1267;9691;-75
2021/12/18 02:55:56;;;;;;;;;;;;;;;;;;112221;1265;9684;-75
2021/12/18 02:58:24;;;;;;;;;;;;;;;;;;112208;1265;8767;-75
2021/12/18 03:00:54;;;;;;;;;;;;;;;;;;112177;1264;9684;-74
2021/12/18 03:03:26;;;;;;;;;;;;;;;;;;112182;1265;8005;-75
2021/12/18 03:06:06;;;;;;;;;;;;;;;;;;112168;1265;9675;-75
2021/12/18 03:08:52;;;;;;;;;;;;;;;;;;112188;1265;7961;-75
2021/12/18 03:25:21;;;;;;;;;;;;;;;;;;111995;1266;9725;-75
2021/12/18 03:27:49;;;;;;;;;;;;;;;;;;112203;1265;9758;-76
2021/12/18 03:30:18;;;;;;;;;;;;;;;;;;112203;1263;7948;-75
2021/12/18 03:32:46;;;;;;;;;;;;;;;;;;112177;1263;9665;-75
2021/12/18 03:35:15;;;;;;;;;;;;;;;;;;112190;1263;8020;-75
2021/12/18 03:37:43;;;;;;;;;;;;;;;;;;112188;1265;9684;-74
2021/12/18 03:40:14;;;;;;;;;;;;;;;;;;112202;1263;7998;-75
2021/12/18 03:42:43;;;;;;;;;;;;;;;;;;112162;1265;9694;-75
2021/12/18 03:45:13;;;;;;;;;;;;;;;;;;112172;1266;8770;-75
2021/12/18 03:47:41;;;;;;;;;;;;;;;;;;112195;1265;7906;-74
2021/12/18 03:50:09;;;;;;;;;;;;;;;;;;112196;1263;8949;-75
2021/12/18 03:52:37;;;;;;;;;;;;;;;;;;112212;1266;9690;-75
2021/12/18 03:55:06;;;;;;;;;;;;;;;;;;112216;1267;8760;-74
2021/12/18 03:57:34;;;;;;;;;;;;;;;;;;112152;1266;8983;-75
2021/12/18 04:00:04;;;;;;;;;;;;;;;;;;112141;1265;8023;-75
2021/12/18 04:02:39;;;;;;;;;;;;;;;;;;112173;1267;8147;-76
2021/12/18 04:05:08;;;;;;;;;;;;;;;;;;112196;1265;8793;-76
2021/12/18 04:07:41;;;;;;;;;;;;;;;;;;111999;1266;7949;-74
2021/12/18 04:10:13;;;;;;;;;;;;;;;;;;112198;1266;9716;-76
2021/12/18 04:12:41;;;;;;;;;;;;;;;;;;112176;1262;8358;-76
2021/12/18 04:15:10;;;;;;;;;;;;;;;;;;112152;1266;9704;-75
2021/12/18 04:17:38;;;;;;;;;;;;;;;;;;112117;1264;8823;-75
2021/12/18 04:20:07;;;;;;;;;;;;;;;;;;112002;1265;8440;-75
2021/12/18 04:22:35;;;;;;;;;;;;;;;;;;112091;1267;8891;-75
2021/12/18 04:25:03;;;;;;;;;;;;;;;;;;112199;1265;9694;-76
2021/12/18 04:27:32;;;;;;;;;;;;;;;;;;112176;1266;8352;-75
2021/12/18 04:30:00;;;;;;;;;;;;;;;;;;112194;1264;9681;-74
2021/12/18 04:32:28;;;;;;;;;;;;;;;;;;112193;1266;7968;-75
2021/12/18 04:34:56;;;;;;;;;;;;;;;;;;112193;1261;8809;-75
2021/12/18 04:37:24;;;;;;;;;;;;;;;;;;112159;1267;9677;-75
2021/12/18 04:39:52;;;;;;;;;;;;;;;;;;112189;1266;8348;-75
2021/12/18 04:42:20;;;;;;;;;;;;;;;;;;111992;1263;274459;-75
2021/12/18 04:44:48;;;;;;;;;;;;;;;;;;112149;1263;9674;-74
2021/12/18 04:47:16;;;;;;;;;;;;;;;;;;112188;1263;8789;-75
2021/12/18 04:49:44;;;;;;;;;;;;;;;;;;112177;1263;7949;-75
2021/12/18 04:52:12;;;;;;;;;;;;;;;;;;112078;1267;9780;-75
2021/12/18 04:54:40;;;;;;;;;;;;;;;;;;112194;1265;7940;-75
2021/12/18 04:57:08;;;;;;;;;;;;;;;;;;112157;1265;8907;-76
2021/12/18 04:59:43;;;;;;;;;;;;;;;;;;112185;1263;8793;-77
2021/12/18 05:02:14;;;;;;;;;;;;;;;;;;112175;1266;9283;-76
2021/12/18 05:04:43;;;;;;;;;;;;;;;;;;112194;1267;8019;-75
2021/12/18 05:07:12;;;;;;;;;;;;;;;;;;112183;1266;9675;-76
2021/12/18 05:09:41;;;;;;;;;;;;;;;;;;112124;1266;8002;-75
2021/12/18 05:12:10;;;;;;;;;;;;;;;;;;112198;1266;8771;-76
2021/12/18 05:14:38;;;;;;;;;;;;;;;;;;112188;1266;8779;-78
2021/12/18 05:17:06;;;;;;;;;;;;;;;;;;112186;1266;7942;-75
2021/12/18 05:19:34;;;;;;;;;;;;;;;;;;112187;1263;9685;-76
2021/12/18 05:22:03;;;;;;;;;;;;;;;;;;112185;1264;8610;-74
2021/12/18 05:24:31;;;;;;;;;;;;;;;;;;112189;1263;8809;-75
2021/12/18 05:26:59;;;;;;;;;;;;;;;;;;112199;1267;9674;-74
2021/12/18 05:29:27;;;;;;;;;;;;;;;;;;112201;1264;7975;-75
2021/12/18 05:31:55;;;;;;;;;;;;;;;;;;112193;1263;8980;-75
2021/12/18 05:34:25;;;;;;;;;;;;;;;;;;112188;1265;8925;-76
2021/12/18 05:39:25;;;;;;;;;;;;;;;;;;112187;1264;8761;-73
2021/12/18 05:41:54;;;;;;;;;;;;;;;;;;112167;1265;9680;-76
2021/12/18 05:44:23;;;;;;;;;;;;;;;;;;112167;1265;8915;-74
2021/12/18 05:46:53;;;;;;;;;;;;;;;;;;112162;1266;8000;-74
2021/12/18 05:49:21;;;;;;;;;;;;;;;;;;112186;1265;9674;-75
2021/12/18 05:51:49;;;;;;;;;;;;;;;;;;112190;1266;7986;-75
2021/12/18 05:56:15;;;;;;;;;;;;;;;;;;;;;
2021/12/18 05:58:52;;;;;;;;;;;;;;;;;;110272;1280;9229;-81
2021/12/18 06:01:20;;;;;;;;;;;;;;;;;;110337;1280;8093;-85
2021/12/18 06:03:51;;;;;;;;;;;;;;;;;;110795;1277;9710;-84
2021/12/18 06:06:37;;;;;;;;;;;;;;;;;;110527;1277;9736;-80
2021/12/18 06:09:19;;;;;;;;;;;;;;;;;;110771;1274;209737;-87
2021/12/18 06:12:15;;;;;;;;;;;;;;;;;;111669;1273;8016;-86
2021/12/18 06:14:48;;;;;;;;;;;;;;;;;;111246;1274;9768;-81
2021/12/18 06:17:17;;;;;;;;;;;;;;;;;;111151;1274;7955;-81
2021/12/18 06:19:47;;;;;;;;;;;;;;;;;;111861;1270;9266;-84
2021/12/18 06:22:16;;;;;;;;;;;;;;;;;;111874;1268;8044;-81
2021/12/18 06:24:48;;;;;;;;;;;;;;;;;;111664;1271;9427;-80
2021/12/18 06:27:17;;;;;;;;;;;;;;;;;;111974;1270;9684;-80
2021/12/18 06:29:46;;;;;;;;;;;;;;;;;;111993;1269;8882;-82
2021/12/18 06:32:16;;;;;;;;;;;;;;;;;;111813;1271;8016;-84
2021/12/18 06:34:44;;;;;;;;;;;;;;;;;;111230;1271;9693;-85
2021/12/18 06:37:12;;;;;;;;;;;;;;;;;;112000;1270;10137;-82
2021/12/18 06:39:40;;;;;;;;;;;;;;;;;;111992;1267;7954;-83
2021/12/18 06:42:20;;;;;;;;;;;;;;;;;;111942;1270;8933;-84
2021/12/18 06:44:58;;;;;;;;;;;;;;;;;;112184;1261;7972;-85
2021/12/18 06:47:26;;;;;;;;;;;;;;;;;;112061;1267;7998;-85
2021/12/18 06:49:54;;;;;;;;;;;;;;;;;;112071;1267;8792;-77
2021/12/18 06:52:22;;;;;;;;;;;;;;;;;;112178;1266;9683;-83
2021/12/18 06:54:50;;;;;;;;;;;;;;;;;;112160;1266;8350;-78
2021/12/18 06:57:22;;;;;;;;;;;;;;;;;;112128;1266;9678;-81
2021/12/18 06:59:51;;;;;;;;;;;;;;;;;;112171;1267;8000;-79
2021/12/18 07:02:20;;;;;;;;;;;;;;;;;;112147;1261;9771;-84
2021/12/18 07:04:48;;;;;;;;;;;;;;;;;;112240;1267;8475;-85
2021/12/18 07:07:57;;;;;;;;;;;;;;;;;;;;;
2021/12/18 07:15:07;;;;;;;;;;;;;;;;;;;;;
2021/12/18 07:18:05;;;;;;;;;;;;;;;;;;111637;1272;8507;-83
2021/12/18 07:20:33;;;;;;;;;;;;;;;;;;111344;1273;9503;-84
2021/12/18 07:23:11;;;;;;;;;;;;;;;;;;110683;1272;9233;-83
2021/12/18 07:25:45;;;;;;;;;;;;;;;;;;110943;1270;8801;-84
2021/12/18 07:28:17;;;;;;;;;;;;;;;;;;110999;1273;9209;-82
2021/12/18 07:30:50;;;;;;;;;;;;;;;;;;111034;1273;9752;-85
2021/12/18 07:33:19;;;;;;;;;;;;;;;;;;110940;1274;8087;-85
2021/12/18 07:35:49;;;;;;;;;;;;;;;;;;110937;1274;8941;-83
2021/12/18 07:38:27;;;;;;;;;;;;;;;;;;111406;1274;9785;-85
2021/12/18 07:41:09;;;;;;;;;;;;;;;;;;110948;1274;8377;-85
2021/12/18 07:44:08;;;;;;;;;;;;;;;;;;;;;
2021/12/18 07:50:25;;;;;;;;;;;;;;;;;;110613;1277;8982;-87
2021/12/18 07:53:15;;;;;;;;;;;;;;;;;;;;;
2021/12/18 07:56:32;;;;;;;;;;;;;;;;;;;;;
2021/12/18 07:59:39;;;;;;;;;;;;;;;;;;;;;
2021/12/18 08:06:00;;;;;;;;;;;;;;;;;;111885;1271;7994;-86
2021/12/18 08:08:40;;;;;;;;;;;;;;;;;;111425;1272;8092;-85
2021/12/18 08:11:08;;;;;;;;;;;;;;;;;;111365;1270;9705;-82
2021/12/18 08:13:39;;;;;;;;;;;;;;;;;;111644;1271;9703;-84
2021/12/18 08:16:09;;;;;;;;;;;;;;;;;;111679;1271;8026;-85
2021/12/18 08:18:38;;;;;;;;;;;;;;;;;;111686;1272;9559;-85
2021/12/18 08:21:14;;;;;;;;;;;;;;;;;;111896;1272;9684;-86
2021/12/18 08:23:48;;;;;;;;;;;;;;;;;;111674;1272;9684;-85
2021/12/18 08:26:26;;;;;;;;;;;;;;;;;;111675;1273;9703;-85
2021/12/18 08:28:57;;;;;;;;;;;;;;;;;;111091;1270;8008;-80
2021/12/18 08:31:25;;;;;;;;;;;;;;;;;;111861;1268;8917;-83
2021/12/18 08:34:19;;;;;;;;;;;;;;;;;;111859;1271;9700;-87
2021/12/18 08:37:14;;;;;;;;;;;;;;;;;;112018;1271;8930;-81
2021/12/18 08:39:42;;;;;;;;;;;;;;;;;;111328;1271;9709;-83
2021/12/18 08:42:10;;;;;;;;;;;;;;;;;;111691;1271;7957;-82
2021/12/18 08:44:51;;;;;;;;;;;;;;;;;;111560;1272;8917;-88
2021/12/18 08:47:23;;;;;;;;;;;;;;;;;;111206;1273;8677;-84
2021/12/18 08:49:54;;;;;;;;;;;;;;;;;;111354;1273;9035;-84
2021/12/18 08:52:30;;;;;;;;;;;;;;;;;;111253;1272;8357;-85
2021/12/18 08:55:02;;;;;;;;;;;;;;;;;;111341;1273;8933;-82
2021/12/18 08:58:03;;;;;;;;;;;;;;;;;;;;;
2021/12/18 09:01:26;;;;;;;;;;;;;;;;;;111349;1274;8938;-87
2021/12/18 09:04:15;;;;;;;;;;;;;;;;;;111111;1273;9034;-83
2021/12/18 09:06:43;;;;;;;;;;;;;;;;;;111415;1273;8896;-82
2021/12/18 09:09:14;;;;;;;;;;;;;;;;;;111801;1272;9706;-83
2021/12/18 09:11:42;;;;;;;;;;;;;;;;;;111092;1273;8372;-81
2021/12/18 09:18:01;;;;;;;;;;;;;;;;;;112057;1271;8843;-83
2021/12/18 09:20:49;;;;;;;;;;;;;;;;;;;;;
2021/12/18 09:24:14;;;;;;;;;;;;;;;;;;;;;
2021/12/18 09:26:59;;;;;;;;;;;;;;;;;;112104;1271;9698;-86
2021/12/18 09:29:49;;;;;;;;;;;;;;;;;;;;;
2021/12/18 09:32:30;;;;;;;;;;;;;;;;;;111568;1271;9788;-83
2021/12/18 09:35:03;;;;;;;;;;;;;;;;;;111477;1272;8128;-88
2021/12/18 09:37:55;;;;;;;;;;;;;;;;;;111080;1273;8023;-86
2021/12/18 09:40:30;;;;;;;;;;;;;;;;;;111142;1273;8058;-82
2021/12/18 09:43:21;;;;;;;;;;;;;;;;;;111626;1272;9698;-84
2021/12/18 09:45:50;;;;;;;;;;;;;;;;;;111716;1271;9248;-82
2021/12/18 09:48:29;;;;;;;;;;;;;;;;;;;;;
2021/12/18 09:51:05;;;;;;;;;;;;;;;;;;111727;1271;9705;-85
2021/12/18 09:53:45;;;;;;;;;;;;;;;;;;111414;1271;8079;-87
2021/12/18 09:56:13;;;;;;;;;;;;;;;;;;111684;1271;8764;-83
2021/12/18 09:58:42;;;;;;;;;;;;;;;;;;111700;1271;8979;-83
2021/12/18 10:01:20;;;;;;;;;;;;;;;;;;111432;1271;9707;-84
2021/12/18 10:03:58;;;;;;;;;;;;;;;;;;111271;1273;8051;-82
2021/12/18 10:06:35;;;;;;;;;;;;;;;;;;111709;1271;8906;-84
2021/12/18 10:09:06;;;;;;;;;;;;;;;;;;111421;1272;8919;-83
2021/12/18 10:11:44;;;;;;;;;;;;;;;;;;111134;1273;8061;-83
2021/12/18 10:14:16;;;;;;;;;;;;;;;;;;111414;1272;8920;-82
2021/12/18 10:16:44;;;;;;;;;;;;;;;;;;111097;1272;9810;-82
2021/12/18 10:19:26;;;;;;;;;;;;;;;;;;111987;1271;8002;-81
2021/12/18 10:22:02;;;;;;;;;;;;;;;;;;111395;1271;8076;-79
2021/12/18 10:24:39;;;;;;;;;;;;;;;;;;111370;1271;8774;-82
2021/12/18 10:27:15;;;;;;;;;;;;;;;;;;111437;1271;8790;-79
2021/12/18 10:29:44;;;;;;;;;;;;;;;;;;111976;1271;8919;-79
2021/12/18 10:32:14;;;;;;;;;;;;;;;;;;111690;1271;7948;-80
2021/12/18 10:34:49;;;;;;;;;;;;;;;;;;111994;1268;9687;-78
2021/12/18 10:37:19;;;;;;;;;;;;;;;;;;111935;1268;9681;-79
2021/12/18 10:39:50;;;;;;;;;;;;;;;;;;111710;1271;8935;-83
2021/12/18 10:42:34;;;;;;;;;;;;;;;;;;111405;1273;9780;-80
2021/12/18 10:45:34;;;;;;;;;;;;;;;;;;111984;1271;9048;-82
2021/12/18 10:48:24;;;;;;;;;;;;;;;;;;;;;
2021/12/18 10:51:14;;;;;;;;;;;;;;;;;;;;;
2021/12/18 10:53:42;;;;;;;;;;;;;;;;;;111984;1271;8955;-81
2021/12/18 10:56:30;;;;;;;;;;;;;;;;;;111870;1270;8414;-74
2021/12/18 10:58:58;;;;;;;;;;;;;;;;;;111981;1271;9335;-77
2021/12/18 11:01:36;;;;;;;;;;;;;;;;;;112003;1269;7960;-82
2021/12/18 11:04:22;;;;;;;;;;;;;;;;;;111673;1271;9684;-83
2021/12/18 11:17:37;;;;;;;;;;;;;;;;;;109534;1292;8583;-80
2021/12/18 11:20:05;;;;;;;;;;;;;;;;;;110618;1278;9708;-81
2021/12/18 11:22:45;;;;;;;;;;;;;;;;;;110600;1276;9222;-87
2021/12/18 11:25:31;;;;;;;;;;;;;;;;;;111994;1269;9733;-78
2021/12/18 11:28:16;;;;;;;;;;;;;;;;;;111971;1270;7937;-81
2021/12/18 11:31:22;;;;;;;;;;;;;;;;;;107905;1268;5374664;-85
2021/12/18 11:34:18;;;;;;;;;;;;;;;;;;112252;1268;8367;-84
2021/12/18 11:36:51;;;;;;;;;;;;;;;;;;112222;1266;8822;-83
2021/12/18 11:39:22;;;;;;;;;;;;;;;;;;112213;1266;9684;-79
2021/12/18 11:41:52;;;;;;;;;;;;;;;;;;112163;1266;7960;-78
2021/12/18 11:44:28;;;;;;;;;;;;;;;;;;112158;1266;8943;-77
2021/12/18 11:47:25;;;;;;;;;;;;;;;;;;112202;1267;8877;-77
2021/12/18 11:49:59;;;;;;;;;;;;;;;;;;112138;1265;9677;-78
2021/12/18 11:52:28;;;;;;;;;;;;;;;;;;112218;1267;9694;-79
2021/12/18 11:55:00;;;;;;;;;;;;;;;;;;112222;1268;7943;-85
2021/12/18 11:57:50;;;;;;;;;;;;;;;;;;112149;1267;8770;-80
2021/12/18 12:00:18;;;;;;;;;;;;;;;;;;112016;1266;9052;-79
2021/12/18 12:02:47;;;;;;;;;;;;;;;;;;112207;1267;9687;-77
2021/12/18 12:05:17;;;;;;;;;;;;;;;;;;112187;1264;8601;-77
2021/12/18 12:07:46;;;;;;;;;;;;;;;;;;112196;1266;8753;-78
2021/12/18 12:10:47;;;;;;;;;;;;;;;;;;112204;1264;9675;-77
2021/12/18 12:13:16;;;;;;;;;;;;;;;;;;112243;1267;8360;-78
2021/12/18 12:15:52;;;;;;;;;;;;;;;;;;112232;1266;8002;-76
2021/12/18 12:18:23;;;;;;;;;;;;;;;;;;112211;1267;9674;-78
2021/12/18 12:20:51;;;;;;;;;;;;;;;;;;112202;1265;7931;-78
2021/12/18 12:23:20;;;;;;;;;;;;;;;;;;112209;1267;8935;-80
2021/12/18 12:25:50;;;;;;;;;;;;;;;;;;112218;1266;8753;-81
2021/12/18 12:28:22;;;;;;;;;;;;;;;;;;112215;1268;7978;-79
2021/12/18 12:31:09;;;;;;;;;;;;;;;;;;112205;1267;9675;-81
2021/12/18 12:33:41;;;;;;;;;;;;;;;;;;112174;1267;8774;-84
2021/12/18 12:36:14;;;;;;;;;;;;;;;;;;112112;1263;8257;-81
2021/12/18 12:39:22;;;;;;;;;;;;;;;;;;112230;1263;8744;-79
2021/12/18 12:42:19;;;;;;;;;;;;;;;;;;111452;1273;8369;-81
2021/12/18 12:44:56;;;;;;;;;;;;;;;;;;111436;1273;8801;-80
2021/12/18 12:47:27;;;;;;;;;;;;;;;;;;111234;1273;9683;-82
2021/12/18 12:50:15;;;;;;;;;;;;;;;;;;111485;1267;8802;-81
2021/12/18 12:52:52;;;;;;;;;;;;;;;;;;112193;1268;8943;-81
2021/12/18 12:55:22;;;;;;;;;;;;;;;;;;112170;1264;9681;-80
2021/12/18 12:57:53;;;;;;;;;;;;;;;;;;112181;1268;10134;-80
2021/12/18 13:00:21;;;;;;;;;;;;;;;;;;112021;1268;9716;-84
2021/12/18 13:02:51;;;;;;;;;;;;;;;;;;112034;1268;8756;-81
2021/12/18 13:05:20;;;;;;;;;;;;;;;;;;112207;1265;7993;-81
2021/12/18 13:07:49;;;;;;;;;;;;;;;;;;112154;1265;9707;-81
2021/12/18 13:10:35;;;;;;;;;;;;;;;;;;112404;1264;7973;-83
2021/12/18 13:13:16;;;;;;;;;;;;;;;;;;112424;1264;8746;-83
2021/12/18 13:16:03;;;;;;;;;;;;;;;;;;112237;1265;9284;-76
2021/12/18 13:18:35;;;;;;;;;;;;;;;;;;112193;1265;8760;-82
2021/12/18 13:21:24;;;;;;;;;;;;;;;;;;112171;1265;8165;-82
2021/12/18 13:23:53;;;;;;;;;;;;;;;;;;112187;1265;8793;-80
2021/12/18 13:26:27;;;;;;;;;;;;;;;;;;112296;1264;9760;-81
2021/12/18 13:29:01;;;;;;;;;;;;;;;;;;112081;1264;8270;-81
2021/12/18 13:31:34;;;;;;;;;;;;;;;;;;112446;1264;9700;-87
2021/12/18 13:34:04;;;;;;;;;;;;;;;;;;112427;1264;8919;-76
2021/12/18 13:36:46;;;;;;;;;;;;;;;;;;112385;1265;8918;-77
2021/12/18 13:39:17;;;;;;;;;;;;;;;;;;112313;1263;8904;-77
2021/12/18 13:41:55;;;;;;;;;;;;;;;;;;112289;1264;8780;-76
2021/12/18 13:44:26;;;;;;;;;;;;;;;;;;112227;1264;8789;-79
2021/12/18 13:46:54;;;;;;;;;;;;;;;;;;112390;1264;8916;-77
2021/12/18 13:49:28;;;;;;;;;;;;;;;;;;112398;1264;7918;-78
2021/12/18 13:52:05;;;;;;;;;;;;;;;;;;112229;1265;8767;-76
2021/12/18 13:54:35;;;;;;;;;;;;;;;;;;112376;1264;8666;-77
2021/12/18 13:57:12;;;;;;;;;;;;;;;;;;112276;1264;8772;-77
2021/12/18 14:00:03;;;;;;;;;;;;;;;;;;112224;1264;7993;-76
2021/12/18 14:02:31;;;;;;;;;;;;;;;;;;112311;1264;7978;-77
2021/12/18 14:05:00;;;;;;;;;;;;;;;;;;112231;1264;8941;-78
2021/12/18 14:07:33;;;;;;;;;;;;;;;;;;112396;1264;9674;-77
2021/12/18 14:10:07;;;;;;;;;;;;;;;;;;112302;1264;7943;-77
2021/12/18 14:12:38;;;;;;;;;;;;;;;;;;112411;1264;9770;-77
2021/12/18 14:15:17;;;;;;;;;;;;;;;;;;112379;1264;9675;-77
2021/12/18 14:17:54;;;;;;;;;;;;;;;;;;112371;1264;9700;-77
2021/12/18 14:20:32;;;;;;;;;;;;;;;;;;112198;1264;9691;-77
2021/12/18 14:23:13;;;;;;;;;;;;;;;;;;112303;1264;8002;-76
2021/12/18 14:25:42;;;;;;;;;;;;;;;;;;112232;1264;8357;-78
2021/12/18 14:28:28;;;;;;;;;;;;;;;;;;112387;1264;8774;-78
2021/12/18 14:30:56;;;;;;;;;;;;;;;;;;112316;1264;9667;-78
2021/12/18 14:33:27;;;;;;;;;;;;;;;;;;112340;1261;8967;-77
2021/12/18 14:36:03;;;;;;;;;;;;;;;;;;112288;1264;8374;-77
2021/12/18 14:38:33;;;;;;;;;;;;;;;;;;112260;1263;9677;-77
2021/12/18 14:41:05;;;;;;;;;;;;;;;;;;112318;1264;8051;-78
2021/12/18 14:43:39;;;;;;;;;;;;;;;;;;112425;1265;8863;-77
2021/12/18 14:46:27;;;;;;;;;;;;;;;;;;112426;1264;9671;-75
2021/12/18 14:49:10;;;;;;;;;;;;;;;;;;112418;1265;8971;-77
2021/12/18 14:51:39;;;;;;;;;;;;;;;;;;112326;1264;9689;-77
2021/12/18 14:54:17;;;;;;;;;;;;;;;;;;112321;1264;9670;-77
2021/12/18 14:56:45;;;;;;;;;;;;;;;;;;112335;1264;9977;-77
2021/12/18 14:59:17;;;;;;;;;;;;;;;;;;112397;1264;8800;-76
2021/12/18 15:02:00;;;;;;;;;;;;;;;;;;112413;1264;7963;-81
2021/12/18 15:04:35;;;;;;;;;;;;;;;;;;112332;1262;9146;-83
2021/12/18 15:07:27;;;;;;;;;;;;;;;;;;112413;1264;8661;-78
2021/12/18 15:09:57;;;;;;;;;;;;;;;;;;112366;1261;8749;-82
2021/12/18 15:12:30;;;;;;;;;;;;;;;;;;112317;1264;8300;-81
2021/12/18 15:15:11;;;;;;;;;;;;;;;;;;112200;1264;7971;-81
2021/12/18 15:17:39;;;;;;;;;;;;;;;;;;112290;1264;8092;-81
2021/12/18 15:20:12;;;;;;;;;;;;;;;;;;112283;1264;9674;-76
2021/12/18 15:22:43;;;;;;;;;;;;;;;;;;112305;1264;7989;-84
2021/12/18 15:25:16;;;;;;;;;;;;;;;;;;112227;1265;8863;-85
2021/12/18 15:27:44;;;;;;;;;;;;;;;;;;112154;1264;7969;-82
2021/12/18 15:30:19;;;;;;;;;;;;;;;;;;112336;1264;9671;-83
2021/12/18 15:32:50;;;;;;;;;;;;;;;;;;112269;1264;8596;-85
2021/12/18 15:35:19;;;;;;;;;;;;;;;;;;112223;1265;8924;-82
2021/12/18 15:37:48;;;;;;;;;;;;;;;;;;112223;1264;9697;-85
2021/12/18 15:40:17;;;;;;;;;;;;;;;;;;112170;1264;7943;-84
2021/12/18 15:42:45;;;;;;;;;;;;;;;;;;112360;1261;9672;-83
2021/12/18 15:45:17;;;;;;;;;;;;;;;;;;112207;1264;8367;-83
2021/12/18 15:47:45;;;;;;;;;;;;;;;;;;112210;1265;9994;-81
2021/12/18 15:50:13;;;;;;;;;;;;;;;;;;112304;1264;8738;-77
2021/12/18 15:52:47;;;;;;;;;;;;;;;;;;112344;1261;7929;-79
2021/12/18 15:55:16;;;;;;;;;;;;;;;;;;112425;1264;9726;-84
2021/12/18 15:57:44;;;;;;;;;;;;;;;;;;112004;1264;7942;-83
2021/12/18 16:00:13;;;;;;;;;;;;;;;;;;112252;1262;8002;-81
2021/12/18 16:02:48;;;;;;;;;;;;;;;;;;112211;1264;9700;-82
2021/12/18 16:05:22;;;;;;;;;;;;;;;;;;112088;1267;8089;-83
2021/12/18 16:07:52;;;;;;;;;;;;;;;;;;112214;1264;8215;-84
2021/12/18 16:10:23;;;;;;;;;;;;;;;;;;112213;1266;8923;-85
2021/12/18 16:12:53;;;;;;;;;;;;;;;;;;112178;1265;9700;-84
2021/12/18 16:15:21;;;;;;;;;;;;;;;;;;112350;1264;7992;-87
2021/12/18 16:17:50;;;;;;;;;;;;;;;;;;112126;1264;9694;-79
2021/12/18 16:20:20;;;;;;;;;;;;;;;;;;112172;1266;8788;-80
2021/12/18 16:22:52;;;;;;;;;;;;;;;;;;112218;1264;8730;-81
2021/12/18 16:25:23;;;;;;;;;;;;;;;;;;112360;1263;9677;-84
2021/12/18 16:27:59;;;;;;;;;;;;;;;;;;112345;1259;9723;-80
2021/12/18 16:30:28;;;;;;;;;;;;;;;;;;112276;1264;8491;-79
2021/12/18 16:32:57;;;;;;;;;;;;;;;;;;112352;1264;9703;-82
2021/12/18 16:35:25;;;;;;;;;;;;;;;;;;112281;1263;7992;-79
2021/12/18 16:38:42;;;;;;;;;;;;;;;;;;112387;1262;9412;-80
2021/12/18 16:40:54;;;;;;;;;;;;;;;;;;112334;1264;9426;-84
2021/12/18 16:43:22;;;;;;;;;;;;;;;;;;112267;1263;8354;-86
2021/12/18 16:46:24;;;;;;;;;;;;;;;;;;112339;1264;8239;-85
2021/12/18 16:48:52;;;;;;;;;;;;;;;;;;112183;1265;8804;-80
2021/12/18 16:51:22;;;;;;;;;;;;;;;;;;112303;1263;9156;-81
2021/12/18 16:53:50;;;;;;;;;;;;;;;;;;112050;1265;8856;-81
2021/12/18 16:56:22;;;;;;;;;;;;;;;;;;112302;1263;7966;-83
2021/12/18 16:58:56;;;;;;;;;;;;;;;;;;112208;1264;9690;-82
2021/12/18 17:01:24;;;;;;;;;;;;;;;;;;112165;1264;8059;-80
2021/12/18 17:03:55;;;;;;;;;;;;;;;;;;112146;1266;9112;-79
2021/12/18 17:06:26;;;;;;;;;;;;;;;;;;112303;1263;9683;-79
2021/12/18 17:09:03;;;;;;;;;;;;;;;;;;112371;1263;7967;-81
2021/12/18 17:11:31;;;;;;;;;;;;;;;;;;112188;1264;8220;-80
2021/12/18 17:13:59;;;;;;;;;;;;;;;;;;112294;1263;9673;-80
2021/12/18 17:16:27;;;;;;;;;;;;;;;;;;112119;1265;8360;-84
2021/12/18 17:18:59;;;;;;;;;;;;;;;;;;112089;1267;8913;-81
2021/12/18 17:21:27;;;;;;;;;;;;;;;;;;112031;1266;9700;-84
2021/12/18 17:24:12;;;;;;;;;;;;;;;;;;112147;1266;8766;-84
2021/12/18 17:26:41;;;;;;;;;;;;;;;;;;111991;1267;8987;-84
2021/12/18 17:29:09;;;;;;;;;;;;;;;;;;112161;1265;9681;-82
2021/12/18 17:31:37;;;;;;;;;;;;;;;;;;112021;1267;8030;-83
2021/12/18 17:34:09;;;;;;;;;;;;;;;;;;112124;1267;9776;-86
2021/12/18 17:36:38;;;;;;;;;;;;;;;;;;111927;1267;8059;-80
2021/12/18 17:39:12;;;;;;;;;;;;;;;;;;111985;1267;8604;-84
2021/12/18 17:41:40;;;;;;;;;;;;;;;;;;112050;1267;9707;-80
2021/12/18 17:44:11;;;;;;;;;;;;;;;;;;112022;1267;8002;-82
2021/12/18 17:46:39;;;;;;;;;;;;;;;;;;112141;1267;9104;-84
2021/12/18 17:49:16;;;;;;;;;;;;;;;;;;112128;1267;9674;-80
2021/12/18 17:51:55;;;;;;;;;;;;;;;;;;112010;1267;9679;-81
2021/12/18 17:54:32;;;;;;;;;;;;;;;;;;112048;1267;8768;-83
2021/12/18 17:57:10;;;;;;;;;;;;;;;;;;112142;1265;8022;-82
2021/12/18 17:59:45;;;;;;;;;;;;;;;;;;112088;1265;7974;-82
2021/12/18 18:02:13;;;;;;;;;;;;;;;;;;112177;1267;7967;-83
2021/12/18 18:04:41;;;;;;;;;;;;;;;;;;112178;1265;9574;-83
2021/12/18 18:07:09;;;;;;;;;;;;;;;;;;112177;1267;9678;-84
2021/12/18 18:09:39;;;;;;;;;;;;;;;;;;112171;1265;8378;-85
2021/12/18 18:12:15;;;;;;;;;;;;;;;;;;112199;1266;7968;-84
2021/12/18 18:14:43;;;;;;;;;;;;;;;;;;112037;1265;9095;-83
2021/12/18 18:17:11;;;;;;;;;;;;;;;;;;112145;1265;9248;-84
2021/12/18 18:19:43;;;;;;;;;;;;;;;;;;112193;1263;9684;-86
2021/12/18 18:22:16;;;;;;;;;;;;;;;;;;112185;1265;9674;-83
2021/12/18 18:24:56;;;;;;;;;;;;;;;;;;112220;1263;7979;-82
2021/12/18 18:27:26;;;;;;;;;;;;;;;;;;112185;1265;7992;-84
2021/12/18 18:29:55;;;;;;;;;;;;;;;;;;112124;1267;8743;-84
2021/12/18 18:32:27;;;;;;;;;;;;;;;;;;112203;1267;7958;-83
2021/12/18 18:34:55;;;;;;;;;;;;;;;;;;112204;1265;9678;-82
2021/12/18 18:37:25;;;;;;;;;;;;;;;;;;112243;1264;8908;-83
2021/12/18 18:39:58;;;;;;;;;;;;;;;;;;112203;1263;8368;-86
2021/12/18 18:42:34;;;;;;;;;;;;;;;;;;112180;1264;8773;-84
2021/12/18 18:45:04;;;;;;;;;;;;;;;;;;112142;1267;9677;-84
2021/12/18 18:47:37;;;;;;;;;;;;;;;;;;111973;1267;7937;-83
2021/12/18 18:50:08;;;;;;;;;;;;;;;;;;112171;1266;9674;-83